Details From HSSS - KHARTOUM
To HKJK - Nairobi Jomo Kanyatta Intl
Flight Number -
Tags decoded
Created
Modified
Stats Distance 1,274 nm / 2,360 km
Max Altitude 0 ft / 0 m
Waypoints 5
Social Downloads 0
Likes 0
Share VATSIM

Download

Looking for another format? Having issues loading an existing format? Contact us
Advertisement - Login to hide

Notes

Requested: HSSS DELAM B612 MLK UB612 TILUK HKJK Unmatched points: B612 UB612

Route

HSSS DELAM MLK TILUK HKJK

ID Type Via Altitude Latitude Longitude Leg Dist Tot Dist Heading (true) Name
O HSSS APT - 0 ft / 0 m 15.58950˚ 32.55316˚ - 0 nm - KHARTOUM
DELAM FIX - 0 ft / 0 m 14.66681˚ 29.11213˚ 207 nm 207 nm 255° / 254° -
MLK VOR - 0 ft / 0 m 9.56317˚ 31.65317˚ 340 nm 547 nm 154° / 154° MALAKAL VOR-DME
TILUK FIX - 0 ft / 0 m 0.99722˚ 35.58415˚ 565 nm 1113 nm 155° / 156° -
O HKJK APT - 0 ft / 0 m -1.31707˚ 36.93076˚ 160 nm 1274 nm 150° / 150° Nairobi Jomo Kanyatta Intl

Altitude Profile

Advertisement - Login to hide

Weather


0- 5 10 15 20 25 30 35+ Temperature / ° C

Clouds and Precipitation
Forecast for 2017-12-11 12:00 UTC. Updated 19 minutes ago

Ground ~20,000 ft ~40,000 ft Winds

HSSS

Details ICAO HSSS (KRT)
Name KHARTOUM
Region Sudan and South Sudan
Timezone Africa/Khartoum (UTC+3.0)
Stats Elevation 1,265 ft / 386 m (AMSL)
Location 15.589499° 32.553159°
Runways 1
Magnetic Variation 3.384° E

METAR

HSSS 110730Z 02008KT 2000 HZ 27/14 Q1015 NOSIG

Decode

TAF

TAF HSSS 110500Z 1106/1212 36008G18KT 8000 SKC TEMPO 1106/1109 4000 BLSA TEMPO 1110/1115 6000 VRB03KT TEMPO 1121/1206 4000 34015G25KT PROB30 TEMPO 1209/1212 6000 FEW040 SCT140

Decode

Departure Runways

ID Width Length Bearing (true) Bearing (mag) Surface Threshold Offset Overrun Length
18 148 ft / 45 m 9,822 ft / 2,994 m 179.48° 176.10° Asphalt 0 ft / 0 m 220 ft / 67 m
36 148 ft / 45 m 9,822 ft / 2,994 m 359.48° 356.10° Asphalt 0 ft / 0 m 215 ft / 66 m

HKJK

Details ICAO HKJK (NBO)
Name Nairobi Jomo Kanyatta Intl
Region Kenya
Timezone Africa/Nairobi (UTC+3.0)
Stats Elevation 5,330 ft / 1,625 m (AMSL)
Location -1.317073° 36.930757°
Runways 1
Magnetic Variation 0.575° E

METAR

HKJK 110700Z 05009KT 010V070 9999 SCT021 BKN250 20/11 Q1024

Decode

TAF

TAF TAF HKJK 110500Z 1106/1212 05010KT 9999 FEW021 BECMG 1108/1111 05015KT BKN025 BECMG 1120/1123 CAVOK TEMPO 1200/1206 FEW006 BKN090

Decode

Destination Runways

ID Width Length Bearing (true) Bearing (mag) Surface Threshold Offset Overrun Length
06 148 ft / 45 m 13,215 ft / 4,028 m 53.90° 53.32° Asphalt 0 ft / 0 m 194 ft / 59 m
24 148 ft / 45 m 13,215 ft / 4,028 m 233.90° 233.32° Asphalt 0 ft / 0 m 197 ft / 60 m

Approach Navaids

Runway Type Ident Frequency Range Bearing (true) Bearing (mag) Slope Elevation
06 Localiser INL 110.30 MHz 18 nm / 33 km 53.84° 53.26° - 5,278 ft / 1,609 m (AMSL)
06 Glidescope INL 110.30 MHz 10 nm / 19 km 53.90° 53.32° 3.00° 5,343 ft / 1,629 m (AMSL)

Popular Alternatives